Time;durP1;ratioP1;P1;durP2;ratioP2;P2;SDS_P1;SDS_P2;PMS_P1;PMS_P2;Temp;Humidity;BMP_temperature;BMP_pressure;BME280_temperature;BME280_humidity;BME280_pressure;Samples;Min_cycle;Max_cycle;Signal;HPM_P1;HPM_P2
2022/09/09 00:00:23;;;;;;;3.38;1.98;;;;;;;;;;2007975;29;20076;-88
2022/09/09 00:01:41;;;;;;;4.75;2.13;;;;;;;;;;2000621;29;20056;-87
2022/09/09 00:03:07;;;;;;;2.65;1.80;;;;;;;;;;2002670;29;20688;-87
2022/09/09 00:04:23;;;;;;;2.35;1.83;;;;;;;;;;2011711;29;20033;-87
2022/09/09 00:05:33;;;;;;;3.72;2.00;;;;;;;;;;2016696;29;20473;-87
2022/09/09 00:06:44;;;;;;;4.70;2.43;;;;;;;;;;2016550;29;20040;-88
2022/09/09 00:07:51;;;;;;;3.97;1.90;;;;;;;;;;2008351;29;20333;-87
2022/09/09 00:09:08;;;;;;;2.15;1.67;;;;;;;;;;2010255;29;20041;-87
2022/09/09 00:10:19;;;;;;;2.70;1.55;;;;;;;;;;2017490;29;20028;-88
2022/09/09 00:11:27;;;;;;;3.38;1.83;;;;;;;;;;2016864;29;20029;-87
2022/09/09 00:12:44;;;;;;;3.03;1.80;;;;;;;;;;2008087;29;20029;-88
2022/09/09 00:13:50;;;;;;;3.13;1.98;;;;;;;;;;2010252;29;20485;-88
2022/09/09 00:14:56;;;;;;;2.70;1.60;;;;;;;;;;1671180;29;10263764;-88
2022/09/09 00:16:28;;;;;;;2.40;1.70;;;;;;;;;;2016628;29;20038;-87
2022/09/09 00:17:28;;;;;;;2.95;2.10;;;;;;;;;;2016295;29;20108;-88
2022/09/09 00:18:38;;;;;;;2.63;2.13;;;;;;;;;;2016320;29;20365;-87
2022/09/09 00:19:50;;;;;;;2.22;1.88;;;;;;;;;;2016165;29;20045;-87
2022/09/09 00:21:03;;;;;;;2.47;1.92;;;;;;;;;;2009075;29;20335;-91
2022/09/09 00:22:13;;;;;;;3.78;1.90;;;;;;;;;;2008368;29;20030;-93
2022/09/09 00:23:37;;;;;;;2.47;1.67;;;;;;;;;;2010058;29;20069;-92
2022/09/09 00:25:22;;;;;;;3.22;1.95;;;;;;;;;;2016980;29;20033;-91
2022/09/09 00:26:40;;;;;;;3.15;1.88;;;;;;;;;;2008427;29;20045;-92
2022/09/09 00:27:45;;;;;;;2.40;1.92;;;;;;;;;;2002959;29;20026;-93
2022/09/09 00:28:54;;;;;;;1.80;1.60;;;;;;;;;;2001419;29;20047;-91
2022/09/09 00:30:19;;;;;;;2.42;1.60;;;;;;;;;;2002141;29;20033;-92
2022/09/09 00:31:24;;;;;;;2.65;1.90;;;;;;;;;;2004168;29;20076;-92
2022/09/09 00:32:29;;;;;;;3.25;1.85;;;;;;;;;;2001150;29;20046;-92
2022/09/09 00:33:31;;;;;;;2.97;1.88;;;;;;;;;;2009199;29;20033;-93
2022/09/09 00:34:32;;;;;;;2.00;1.80;;;;;;;;;;2008418;29;20025;-93
2022/09/09 00:35:39;;;;;;;2.80;1.85;;;;;;;;;;2001364;29;20041;-93
2022/09/09 00:36:41;;;;;;;3.05;2.00;;;;;;;;;;2002312;29;20030;-92
2022/09/09 00:37:45;;;;;;;2.45;2.00;;;;;;;;;;2009775;29;20481;-92
2022/09/09 00:38:51;;;;;;;2.53;1.77;;;;;;;;;;2010246;29;20030;-92
2022/09/09 00:39:56;;;;;;;2.97;1.80;;;;;;;;;;2009612;29;20064;-92
2022/09/09 00:41:07;;;;;;;4.60;2.35;;;;;;;;;;2008974;29;20525;-93
2022/09/09 00:42:26;;;;;;;2.80;1.80;;;;;;;;;;2002831;29;20382;-93
2022/09/09 00:43:32;;;;;;;2.28;1.75;;;;;;;;;;2003630;29;20041;-93
2022/09/09 00:44:37;;;;;;;3.55;2.00;;;;;;;;;;2009832;29;20056;-93
2022/09/09 00:46:06;;;;;;;3.80;2.10;;;;;;;;;;2009134;29;20146;-93
2022/09/09 00:47:09;;;;;;;2.75;2.20;;;;;;;;;;2008740;29;20121;-93
2022/09/09 00:48:13;;;;;;;2.78;2.22;;;;;;;;;;2008841;29;20190;-93
2022/09/09 00:49:35;;;;;;;4.72;1.83;;;;;;;;;;2008950;29;20034;-94
2022/09/09 00:51:00;;;;;;;4.68;2.45;;;;;;;;;;2003878;29;20032;-92
2022/09/09 00:52:19;;;;;;;2.92;2.15;;;;;;;;;;2004320;29;20033;-93
2022/09/09 00:53:27;;;;;;;3.97;2.17;;;;;;;;;;2011102;29;20557;-94
2022/09/09 00:54:35;;;;;;;4.43;2.03;;;;;;;;;;2008726;29;20109;-93
2022/09/09 00:55:48;;;;;;;5.47;2.38;;;;;;;;;;1774066;29;10195101;-93
2022/09/09 00:57:06;;;;;;;3.30;2.10;;;;;;;;;;2002699;29;20327;-93
2022/09/09 00:58:08;;;;;;;3.08;2.05;;;;;;;;;;2003397;29;20045;-93
2022/09/09 00:59:28;;;;;;;2.65;1.98;;;;;;;;;;2001178;29;20415;-93
2022/09/09 01:00:31;;;;;;;2.60;2.00;;;;;;;;;;2008691;29;20037;-93
2022/09/09 01:01:32;;;;;;;3.88;2.28;;;;;;;;;;2001659;29;20358;-94
2022/09/09 01:03:24;;;;;;;2.92;1.90;;;;;;;;;;2001156;29;20030;-93
2022/09/09 01:04:33;;;;;;;2.75;1.95;;;;;;;;;;2000859;29;20034;-92
2022/09/09 01:06:03;;;;;;;2.40;1.88;;;;;;;;;;2002205;29;20018;-94
2022/09/09 01:07:15;;;;;;;2.63;1.85;;;;;;;;;;2004818;29;20026;-93
2022/09/09 01:08:31;;;;;;;4.00;2.20;;;;;;;;;;2002641;29;20048;-94
2022/09/09 01:10:05;;;;;;;3.65;1.95;;;;;;;;;;2003114;29;20132;-93
2022/09/09 01:11:10;;;;;;;4.25;1.90;;;;;;;;;;2001741;29;20596;-93
2022/09/09 01:12:26;;;;;;;3.08;2.08;;;;;;;;;;2001937;29;20060;-93
2022/09/09 01:13:33;;;;;;;3.15;2.20;;;;;;;;;;2003333;29;20033;-93
2022/09/09 01:14:33;;;;;;;4.70;2.30;;;;;;;;;;2008757;29;20421;-93
2022/09/09 01:15:35;;;;;;;2.78;1.95;;;;;;;;;;2008748;29;20025;-94
2022/09/09 01:16:36;;;;;;;4.40;1.80;;;;;;;;;;2008723;29;20448;-93
2022/09/09 01:17:49;;;;;;;2.30;1.90;;;;;;;;;;2008608;29;20044;-93
2022/09/09 01:18:52;;;;;;;2.53;2.03;;;;;;;;;;2002768;29;20036;-93
2022/09/09 01:20:12;;;;;;;3.53;1.92;;;;;;;;;;2016595;29;20029;-92
2022/09/09 01:21:38;;;;;;;2.20;1.92;;;;;;;;;;2010081;29;20049;-92
2022/09/09 01:22:59;;;;;;;4.10;2.22;;;;;;;;;;2012665;29;20104;-90
2022/09/09 01:24:26;;;;;;;3.55;2.13;;;;;;;;;;2016933;29;20085;-93
2022/09/09 01:26:04;;;;;;;5.10;2.17;;;;;;;;;;2008644;29;20065;-93
2022/09/09 01:27:07;;;;;;;3.47;2.00;;;;;;;;;;2007554;29;20494;-93
2022/09/09 01:28:12;;;;;;;3.63;2.30;;;;;;;;;;2002634;29;20256;-93
2022/09/09 01:29:16;;;;;;;2.78;2.28;;;;;;;;;;2003424;29;20110;-93
2022/09/09 01:30:18;;;;;;;2.47;2.28;;;;;;;;;;2009248;29;20152;-92
2022/09/09 01:31:22;;;;;;;6.78;2.25;;;;;;;;;;2011097;29;20091;-91
2022/09/09 01:32:41;;;;;;;3.00;2.28;;;;;;;;;;2018617;29;20081;-92
2022/09/09 01:33:42;;;;;;;4.78;2.33;;;;;;;;;;2018542;29;20036;-92
2022/09/09 01:34:42;;;;;;;3.38;2.15;;;;;;;;;;2010884;29;20025;-92
2022/09/09 01:35:54;;;;;;;2.67;1.95;;;;;;;;;;2002959;29;20027;-94
2022/09/09 01:37:05;;;;;;;3.20;2.00;;;;;;;;;;2011819;29;20032;-92
2022/09/09 01:38:06;;;;;;;3.15;2.45;;;;;;;;;;2010629;29;20414;-93
2022/09/09 01:39:06;;;;;;;2.40;1.98;;;;;;;;;;2010269;29;20040;-93
2022/09/09 01:40:07;;;;;;;3.20;2.15;;;;;;;;;;2010470;29;20029;-94
2022/09/09 01:41:07;;;;;;;3.92;2.10;;;;;;;;;;2020212;29;20539;-93
2022/09/09 01:42:12;;;;;;;3.90;1.80;;;;;;;;;;2026999;29;20032;-94
2022/09/09 01:43:13;;;;;;;4.45;1.85;;;;;;;;;;2026696;29;20044;-94
2022/09/09 01:44:14;;;;;;;3.90;2.10;;;;;;;;;;2018651;29;20049;-94
2022/09/09 01:45:14;;;;;;;3.35;2.60;;;;;;;;;;2012807;29;20112;-94
2022/09/09 01:46:16;;;;;;;2.47;1.80;;;;;;;;;;2011385;29;20040;-94
2022/09/09 01:47:17;;;;;;;2.50;1.77;;;;;;;;;;2018190;29;20032;-94
2022/09/09 01:48:19;;;;;;;3.30;2.05;;;;;;;;;;2010815;29;20025;-94
2022/09/09 01:49:19;;;;;;;2.22;1.83;;;;;;;;;;2010606;29;20105;-94
2022/09/09 01:50:20;;;;;;;4.00;1.90;;;;;;;;;;2003002;29;20034;-94
2022/09/09 01:51:22;;;;;;;5.68;2.47;;;;;;;;;;2010465;29;20032;-92
2022/09/09 01:52:22;;;;;;;1.92;1.73;;;;;;;;;;2010397;29;20030;-92
2022/09/09 01:53:23;;;;;;;4.40;2.25;;;;;;;;;;2002863;29;20090;-93
2022/09/09 01:54:27;;;;;;;3.85;2.25;;;;;;;;;;2010613;29;20145;-92
2022/09/09 01:55:38;;;;;;;2.53;2.25;;;;;;;;;;2003136;29;20059;-94
2022/09/09 01:56:41;;;;;;;3.78;2.40;;;;;;;;;;2004875;29;20441;-93
2022/09/09 01:58:00;;;;;;;3.15;1.98;;;;;;;;;;2009328;29;20082;-93
2022/09/09 01:59:04;;;;;;;2.50;2.05;;;;;;;;;;2020271;29;20092;-92
2022/09/09 02:00:11;;;;;;;3.08;2.20;;;;;;;;;;2025953;29;20128;-94
2022/09/09 02:01:21;;;;;;;2.40;2.08;;;;;;;;;;2012026;29;20053;-92
2022/09/09 02:02:52;;;;;;;2.55;1.80;;;;;;;;;;2005473;29;20086;-92
2022/09/09 02:03:55;;;;;;;3.45;2.40;;;;;;;;;;2015473;29;20045;-91
2022/09/09 02:05:16;;;;;;;3.38;2.05;;;;;;;;;;2004276;29;20109;-92
2022/09/09 02:06:37;;;;;;;1.85;1.60;;;;;;;;;;2000523;29;20086;-94
2022/09/09 02:07:48;;;;;;;3.45;2.00;;;;;;;;;;2005253;29;20441;-93
2022/09/09 02:08:52;;;;;;;2.85;1.88;;;;;;;;;;2012063;29;20465;-93
2022/09/09 02:10:05;;;;;;;2.67;2.05;;;;;;;;;;2010344;29;20025;-93
2022/09/09 02:11:12;;;;;;;5.15;2.00;;;;;;;;;;2012424;29;20022;-94
2022/09/09 02:12:17;;;;;;;2.45;1.98;;;;;;;;;;2019013;29;20450;-93
2022/09/09 02:13:20;;;;;;;2.83;2.15;;;;;;;;;;2010519;29;20069;-94
2022/09/09 02:14:30;;;;;;;3.05;1.63;;;;;;;;;;2003141;29;20044;-93
2022/09/09 02:15:41;;;;;;;2.22;1.77;;;;;;;;;;2004075;29;20026;-93
2022/09/09 02:16:52;;;;;;;1.90;1.73;;;;;;;;;;2004155;29;20052;-93
2022/09/09 02:17:55;;;;;;;1.95;1.73;;;;;;;;;;2011713;29;20029;-94
2022/09/09 02:19:02;;;;;;;4.18;2.22;;;;;;;;;;2010588;29;20099;-93
2022/09/09 02:20:12;;;;;;;2.22;1.63;;;;;;;;;;2011668;29;20546;-93
2022/09/09 02:21:15;;;;;;;2.25;1.83;;;;;;;;;;2009860;29;20067;-93
2022/09/09 02:22:22;;;;;;;3.67;1.92;;;;;;;;;;2010714;29;20037;-93
2022/09/09 02:23:23;;;;;;;1.70;1.45;;;;;;;;;;2010370;29;20045;-94
2022/09/09 02:24:26;;;;;;;2.42;1.70;;;;;;;;;;2010225;29;20105;-93
2022/09/09 02:25:31;;;;;;;3.05;1.95;;;;;;;;;;2010254;29;20524;-91
2022/09/09 02:26:37;;;;;;;3.17;2.00;;;;;;;;;;2003461;29;20025;-94
2022/09/09 02:27:37;;;;;;;4.25;1.80;;;;;;;;;;2002802;29;20140;-92
2022/09/09 02:28:39;;;;;;;1.52;1.42;;;;;;;;;;1664852;29;10089795;-92
2022/09/09 02:29:42;;;;;;;1.98;1.60;;;;;;;;;;2002381;29;20026;-93
2022/09/09 02:30:46;;;;;;;2.80;1.90;;;;;;;;;;2010543;29;20026;-93
2022/09/09 02:31:49;;;;;;;4.70;1.80;;;;;;;;;;2009961;29;20556;-91
2022/09/09 02:32:56;;;;;;;3.63;1.50;;;;;;;;;;2010315;29;20038;-94
2022/09/09 02:34:00;;;;;;;2.60;1.77;;;;;;;;;;2010123;29;20029;-94
2022/09/09 02:35:06;;;;;;;2.26;1.77;;;;;;;;;;1668370;29;10000794;-93
2022/09/09 02:36:10;;;;;;;2.53;1.70;;;;;;;;;;2009788;29;20561;-93
2022/09/09 02:37:12;;;;;;;3.03;2.38;;;;;;;;;;2009170;29;20052;-92
2022/09/09 02:38:16;;;;;;;1.98;1.50;;;;;;;;;;2009056;29;20032;-92
2022/09/09 02:39:16;;;;;;;3.78;1.70;;;;;;;;;;2002174;29;20033;-92
2022/09/09 02:40:17;;;;;;;2.38;1.75;;;;;;;;;;2001963;29;20033;-92
2022/09/09 02:41:22;;;;;;;3.05;1.70;;;;;;;;;;2001904;29;20105;-93
2022/09/09 02:42:23;;;;;;;3.80;2.22;;;;;;;;;;2002456;29;20378;-92
2022/09/09 02:43:24;;;;;;;2.58;1.83;;;;;;;;;;2009880;29;20130;-90
2022/09/09 02:44:25;;;;;;;2.75;1.70;;;;;;;;;;2019599;29;20417;-91
2022/09/09 02:45:31;;;;;;;2.03;1.70;;;;;;;;;;2011346;29;20120;-93
2022/09/09 02:46:49;;;;;;;2.42;1.50;;;;;;;;;;2002889;29;20037;-92
2022/09/09 02:48:13;;;;;;;1.83;1.55;;;;;;;;;;2011904;29;20022;-92
2022/09/09 02:49:30;;;;;;;2.60;1.80;;;;;;;;;;2010024;29;20041;-94
2022/09/09 02:50:35;;;;;;;2.97;2.00;;;;;;;;;;2003550;29;20470;-93
2022/09/09 02:52:07;;;;;;;3.47;1.73;;;;;;;;;;2009944;29;20101;-94
2022/09/09 02:53:24;;;;;;;2.67;1.70;;;;;;;;;;2009652;29;20029;-92
2022/09/09 02:54:30;;;;;;;2.90;1.50;;;;;;;;;;2003881;29;20030;-92
2022/09/09 02:55:43;;;;;;;2.33;2.10;;;;;;;;;;2002375;29;20041;-93
2022/09/09 02:56:51;;;;;;;3.35;1.80;;;;;;;;;;2003091;29;20030;-93
2022/09/09 02:57:53;;;;;;;4.55;2.10;;;;;;;;;;2002612;29;20041;-93
2022/09/09 02:58:54;;;;;;;4.15;1.70;;;;;;;;;;2002090;29;20062;-93
2022/09/09 02:59:57;;;;;;;3.13;1.77;;;;;;;;;;2002152;29;20493;-93
2022/09/09 03:00:58;;;;;;;2.75;1.90;;;;;;;;;;2002685;29;20046;-90
2022/09/09 03:01:58;;;;;;;2.95;1.92;;;;;;;;;;2011679;29;20086;-91
2022/09/09 03:02:59;;;;;;;2.75;1.65;;;;;;;;;;2003177;29;20030;-93
2022/09/09 03:03:59;;;;;;;2.63;1.90;;;;;;;;;;2001840;29;20545;-92
2022/09/09 03:04:59;;;;;;;2.60;1.70;;;;;;;;;;2009517;29;20034;-93
2022/09/09 03:06:01;;;;;;;2.85;1.48;;;;;;;;;;2009527;29;20141;-93
2022/09/09 03:07:03;;;;;;;4.68;1.98;;;;;;;;;;2002099;29;20030;-93
2022/09/09 03:08:05;;;;;;;1.90;1.50;;;;;;;;;;2002202;29;20053;-93
2022/09/09 03:09:05;;;;;;;2.25;1.70;;;;;;;;;;2009672;29;20341;-93
2022/09/09 03:10:06;;;;;;;2.42;1.88;;;;;;;;;;2001931;29;20212;-93
2022/09/09 03:11:09;;;;;;;3.40;2.20;;;;;;;;;;2001961;29;20030;-93
2022/09/09 03:12:10;;;;;;;2.67;2.00;;;;;;;;;;2002044;29;20022;-93
2022/09/09 03:13:19;;;;;;;2.61;1.73;;;;;;;;;;1920045;29;10002187;-93
2022/09/09 03:14:21;;;;;;;2.30;1.80;;;;;;;;;;2010563;29;20746;-93
2022/09/09 03:15:21;;;;;;;3.15;1.88;;;;;;;;;;2009411;29;20033;-93
2022/09/09 03:16:24;;;;;;;5.85;2.38;;;;;;;;;;2001669;29;20030;-92
2022/09/09 03:17:27;;;;;;;3.53;2.00;;;;;;;;;;2002133;29;20034;-92
2022/09/09 03:18:28;;;;;;;6.15;2.67;;;;;;;;;;2009720;29;20056;-92
2022/09/09 03:19:29;;;;;;;3.50;1.92;;;;;;;;;;2009512;29;20496;-93
2022/09/09 03:20:30;;;;;;;3.70;2.20;;;;;;;;;;2009565;29;20022;-93
2022/09/09 03:21:31;;;;;;;3.63;2.13;;;;;;;;;;2009436;29;20022;-92
2022/09/09 03:22:32;;;;;;;3.25;2.17;;;;;;;;;;2001956;29;20162;-93
2022/09/09 03:23:32;;;;;;;5.15;2.13;;;;;;;;;;2009168;29;20124;-92
2022/09/09 03:24:33;;;;;;;4.03;2.55;;;;;;;;;;2001302;29;20026;-92
2022/09/09 03:25:33;;;;;;;3.13;2.42;;;;;;;;;;2001176;29;20033;-92
2022/09/09 03:26:33;;;;;;;3.00;1.90;;;;;;;;;;2001129;29;20041;-91
2022/09/09 03:27:35;;;;;;;5.93;2.08;;;;;;;;;;2008838;29;20029;-91
2022/09/09 03:28:35;;;;;;;8.30;2.50;;;;;;;;;;1679457;29;10001605;-91
2022/09/09 03:29:35;;;;;;;4.55;2.38;;;;;;;;;;2008665;29;20077;-91
2022/09/09 03:30:37;;;;;;;1.85;1.73;;;;;;;;;;2000860;29;20026;-91
2022/09/09 03:31:38;;;;;;;2.92;1.83;;;;;;;;;;2008531;29;20033;-91
2022/09/09 03:32:40;;;;;;;2.95;1.90;;;;;;;;;;2008652;29;20401;-91
2022/09/09 03:33:41;;;;;;;4.30;2.35;;;;;;;;;;2008672;29;20018;-91
2022/09/09 03:34:42;;;;;;;2.33;1.90;;;;;;;;;;2009320;29;20018;-91
2022/09/09 03:35:48;;;;;;;3.17;2.10;;;;;;;;;;2008705;29;20544;-91
2022/09/09 03:36:49;;;;;;;2.20;2.00;;;;;;;;;;1659080;29;10259401;-91
2022/09/09 03:37:49;;;;;;;6.07;2.20;;;;;;;;;;2001128;29;20102;-91
2022/09/09 03:38:50;;;;;;;3.10;2.10;;;;;;;;;;2008812;29;20025;-92
2022/09/09 03:39:50;;;;;;;3.10;2.10;;;;;;;;;;2016556;29;20037;-91
2022/09/09 03:40:56;;;;;;;3.22;2.30;;;;;;;;;;2008830;29;20056;-91
2022/09/09 03:41:57;;;;;;;4.13;2.20;;;;;;;;;;2001835;29;20030;-91
2022/09/09 03:42:57;;;;;;;3.60;2.72;;;;;;;;;;1673702;29;10001124;-91
2022/09/09 03:43:58;;;;;;;2.60;1.90;;;;;;;;;;2016485;29;20093;-91
2022/09/09 03:44:59;;;;;;;3.60;1.98;;;;;;;;;;2008661;29;20508;-91
2022/09/09 03:45:59;;;;;;;4.60;2.25;;;;;;;;;;2008563;29;20571;-92
2022/09/09 03:47:00;;;;;;;4.20;2.47;;;;;;;;;;2009002;29;20082;-91
2022/09/09 03:48:01;;;;;;;4.50;2.08;;;;;;;;;;2000833;29;20034;-91
2022/09/09 03:49:02;;;;;;;2.80;1.98;;;;;;;;;;2008421;29;20077;-91
2022/09/09 03:50:04;;;;;;;3.55;2.20;;;;;;;;;;2009925;29;20037;-90
2022/09/09 03:51:04;;;;;;;3.55;2.05;;;;;;;;;;2003968;29;20034;-90
2022/09/09 03:52:05;;;;;;;5.50;2.22;;;;;;;;;;2003280;29;20163;-90
2022/09/09 03:53:05;;;;;;;8.25;2.88;;;;;;;;;;2011465;29;20504;-91
2022/09/09 03:54:09;;;;;;;4.28;3.00;;;;;;;;;;2009420;29;20062;-91
2022/09/09 03:55:10;;;;;;;7.43;3.25;;;;;;;;;;2009378;29;20036;-90
2022/09/09 03:56:10;;;;;;;5.18;2.47;;;;;;;;;;2008694;29;20061;-91
2022/09/09 03:57:11;;;;;;;4.35;2.97;;;;;;;;;;2009294;29;20029;-90
2022/09/09 03:58:13;;;;;;;3.10;2.78;;;;;;;;;;1675056;29;10001246;-90
2022/09/09 03:59:14;;;;;;;4.88;3.00;;;;;;;;;;2010391;29;20040;-92
2022/09/09 04:00:14;;;;;;;4.00;2.60;;;;;;;;;;2009030;29;20066;-92
2022/09/09 04:01:17;;;;;;;4.43;2.70;;;;;;;;;;2001421;29;20042;-92
2022/09/09 04:02:17;;;;;;;3.55;2.50;;;;;;;;;;2003152;29;20040;-91
2022/09/09 04:03:18;;;;;;;4.65;2.60;;;;;;;;;;2011096;29;20025;-89
2022/09/09 04:04:19;;;;;;;3.28;2.85;;;;;;;;;;2019427;29;20413;-91
2022/09/09 04:05:20;;;;;;;3.88;2.92;;;;;;;;;;2011880;29;20037;-92
2022/09/09 04:06:21;;;;;;;3.28;2.83;;;;;;;;;;2009350;29;20586;-91
2022/09/09 04:07:21;;;;;;;6.90;2.97;;;;;;;;;;2001491;29;20053;-92
2022/09/09 04:08:25;;;;;;;6.38;2.90;;;;;;;;;;2009368;29;20025;-91
2022/09/09 04:09:25;;;;;;;6.07;2.90;;;;;;;;;;2009493;29;20211;-92
2022/09/09 04:10:26;;;;;;;5.45;2.97;;;;;;;;;;2009129;29;20504;-91
2022/09/09 04:11:26;;;;;;;4.00;2.67;;;;;;;;;;2001457;29;20058;-91
2022/09/09 04:12:27;;;;;;;6.55;3.47;;;;;;;;;;2009017;29;20039;-92
2022/09/09 04:13:28;;;;;;;4.05;2.95;;;;;;;;;;2016458;29;20618;-90
2022/09/09 04:14:28;;;;;;;5.13;3.17;;;;;;;;;;2008975;29;20030;-91
2022/09/09 04:15:30;;;;;;;4.35;3.53;;;;;;;;;;2001017;29;20114;-91
2022/09/09 04:16:30;;;;;;;4.95;3.33;;;;;;;;;;2009005;29;20079;-91
2022/09/09 04:17:31;;;;;;;3.63;2.78;;;;;;;;;;2008891;29;20033;-92
2022/09/09 04:18:32;;;;;;;4.85;3.13;;;;;;;;;;2001313;29;20032;-91
2022/09/09 04:19:33;;;;;;;4.72;3.28;;;;;;;;;;2008976;29;20036;-92
2022/09/09 04:20:33;;;;;;;5.05;2.95;;;;;;;;;;2008763;29;20025;-91
2022/09/09 04:21:34;;;;;;;4.35;2.92;;;;;;;;;;2001042;29;20057;-92
2022/09/09 04:22:34;;;;;;;4.25;3.20;;;;;;;;;;2008835;29;20032;-91
2022/09/09 04:23:35;;;;;;;5.75;3.25;;;;;;;;;;2008782;29;20030;-91
2022/09/09 04:24:36;;;;;;;7.65;3.00;;;;;;;;;;2008966;29;20017;-92
2022/09/09 04:25:37;;;;;;;5.43;3.35;;;;;;;;;;2008748;29;20032;-93
2022/09/09 04:26:38;;;;;;;5.72;3.47;;;;;;;;;;2008999;29;20018;-91
2022/09/09 04:27:38;;;;;;;5.57;3.10;;;;;;;;;;2009290;29;20169;-93
2022/09/09 04:28:39;;;;;;;5.88;3.80;;;;;;;;;;2009362;29;20112;-94
2022/09/09 04:29:39;;;;;;;4.30;3.45;;;;;;;;;;2009348;29;20038;-94
2022/09/09 04:30:40;;;;;;;5.30;3.03;;;;;;;;;;2001735;29;20097;-93
2022/09/09 04:31:41;;;;;;;3.55;2.90;;;;;;;;;;2001727;29;20498;-94
2022/09/09 04:32:42;;;;;;;6.15;3.60;;;;;;;;;;2009167;29;20029;-93
2022/09/09 04:33:42;;;;;;;6.53;3.60;;;;;;;;;;2009206;29;20014;-94
2022/09/09 04:34:42;;;;;;;6.30;3.58;;;;;;;;;;2004738;29;20575;-93
2022/09/09 04:35:48;;;;;;;4.50;3.05;;;;;;;;;;2025454;29;20032;-93
2022/09/09 04:36:48;;;;;;;6.25;3.13;;;;;;;;;;2018283;29;20021;-91
2022/09/09 04:37:49;;;;;;;4.38;3.10;;;;;;;;;;2003039;29;20022;-92
2022/09/09 04:38:49;;;;;;;6.75;2.90;;;;;;;;;;2001557;29;20026;-92
2022/09/09 04:39:50;;;;;;;4.35;2.95;;;;;;;;;;2001472;29;20041;-92
2022/09/09 04:40:51;;;;;;;4.60;3.38;;;;;;;;;;2001366;29;20034;-92
2022/09/09 04:41:52;;;;;;;3.72;3.42;;;;;;;;;;2008862;29;20148;-93
2022/09/09 04:42:53;;;;;;;3.50;2.50;;;;;;;;;;2001265;29;20059;-94
2022/09/09 04:43:54;;;;;;;5.22;2.72;;;;;;;;;;2002658;29;20034;-96
2022/09/09 04:44:54;;;;;;;3.63;2.40;;;;;;;;;;2002641;29;20535;-94
2022/09/09 04:45:55;;;;;;;5.78;3.25;;;;;;;;;;2009558;29;20093;-95
2022/09/09 04:46:55;;;;;;;3.70;2.67;;;;;;;;;;2016776;29;20150;-93
2022/09/09 04:47:56;;;;;;;6.97;2.90;;;;;;;;;;2009402;29;20102;-95
2022/09/09 04:48:57;;;;;;;4.28;2.50;;;;;;;;;;2009392;29;20094;-92
2022/09/09 04:49:57;;;;;;;4.95;2.70;;;;;;;;;;2009229;29;20044;-90
2022/09/09 04:51:04;;;;;;;4.93;2.83;;;;;;;;;;2001714;29;20025;-92
2022/09/09 04:52:05;;;;;;;6.05;2.80;;;;;;;;;;2002715;29;20040;-93
2022/09/09 04:53:05;;;;;;;4.32;2.72;;;;;;;;;;2002322;29;20567;-96
2022/09/09 04:54:07;;;;;;;4.55;3.13;;;;;;;;;;2002074;29;20112;-92
2022/09/09 04:55:09;;;;;;;4.57;3.13;;;;;;;;;;2009731;29;20029;-96
2022/09/09 04:56:15;;;;;;;6.93;2.80;;;;;;;;;;2010266;29;20055;-95
2022/09/09 04:57:16;;;;;;;3.78;2.90;;;;;;;;;;2011490;29;20577;-89
2022/09/09 04:58:16;;;;;;;6.25;3.10;;;;;;;;;;2012038;29;20044;-88
2022/09/09 04:59:16;;;;;;;4.75;3.00;;;;;;;;;;2012174;29;20067;-89
2022/09/09 05:00:17;;;;;;;5.75;3.28;;;;;;;;;;2011300;29;20037;-88
2022/09/09 05:01:21;;;;;;;4.57;3.00;;;;;;;;;;2018473;29;20056;-88
2022/09/09 05:02:22;;;;;;;5.07;2.85;;;;;;;;;;2009553;29;20017;-88
2022/09/09 05:03:22;;;;;;;4.32;2.97;;;;;;;;;;2009122;29;20017;-88
2022/09/09 05:04:22;;;;;;;5.85;3.08;;;;;;;;;;2016727;29;20097;-88
2022/09/09 05:05:23;;;;;;;4.45;3.00;;;;;;;;;;2007781;29;20032;-88
2022/09/09 05:06:24;;;;;;;4.65;2.67;;;;;;;;;;2007740;29;20057;-88
2022/09/09 05:07:27;;;;;;;3.97;2.85;;;;;;;;;;2007414;29;20477;-87
2022/09/09 05:08:27;;;;;;;4.30;2.70;;;;;;;;;;1999773;29;20172;-87
2022/09/09 05:09:29;;;;;;;4.70;3.00;;;;;;;;;;2007012;29;20044;-88
2022/09/09 05:10:31;;;;;;;6.00;2.80;;;;;;;;;;2007053;29;20429;-87
2022/09/09 05:11:35;;;;;;;7.03;3.40;;;;;;;;;;2007071;29;20509;-87
2022/09/09 05:12:36;;;;;;;6.82;2.80;;;;;;;;;;2008697;29;20048;-88
2022/09/09 05:13:36;;;;;;;6.43;3.30;;;;;;;;;;2009783;29;20111;-88
2022/09/09 05:14:37;;;;;;;6.20;3.30;;;;;;;;;;2009358;29;20505;-88
2022/09/09 05:15:37;;;;;;;5.35;3.75;;;;;;;;;;2001970;29;20025;-87
2022/09/09 05:16:38;;;;;;;5.78;3.08;;;;;;;;;;2008418;29;20037;-87
2022/09/09 05:17:38;;;;;;;5.70;2.63;;;;;;;;;;2007625;29;20475;-87
2022/09/09 05:18:40;;;;;;;5.03;2.90;;;;;;;;;;2009743;29;20025;-87
2022/09/09 05:19:40;;;;;;;4.10;3.15;;;;;;;;;;2009024;29;20456;-87
2022/09/09 05:20:43;;;;;;;5.75;3.42;;;;;;;;;;2016294;29;20029;-87
2022/09/09 05:21:43;;;;;;;3.45;1.92;;;;;;;;;;2007318;29;20413;-87
2022/09/09 05:22:44;;;;;;;3.08;1.88;;;;;;;;;;2000160;29;20057;-87
2022/09/09 05:23:45;;;;;;;3.35;2.00;;;;;;;;;;2007710;29;20034;-87
2022/09/09 05:24:45;;;;;;;4.20;1.70;;;;;;;;;;2015973;29;20056;-87
2022/09/09 05:25:57;;;;;;;2.72;1.70;;;;;;;;;;2015865;29;20032;-88
2022/09/09 05:26:59;;;;;;;3.40;1.73;;;;;;;;;;2007469;29;20060;-87
2022/09/09 05:28:00;;;;;;;6.63;2.83;;;;;;;;;;2007993;29;20104;-88
2022/09/09 05:29:01;;;;;;;4.78;2.35;;;;;;;;;;2015909;29;20492;-88
2022/09/09 05:30:01;;;;;;;3.83;2.60;;;;;;;;;;2016104;29;20119;-89
2022/09/09 05:31:11;;;;;;;5.13;2.88;;;;;;;;;;2015817;29;20034;-89
2022/09/09 05:32:13;;;;;;;5.40;2.67;;;;;;;;;;2018615;29;20024;-90
2022/09/09 05:33:13;;;;;;;3.60;2.55;;;;;;;;;;2007569;29;20030;-89
2022/09/09 05:34:14;;;;;;;3.08;2.42;;;;;;;;;;2007661;29;20033;-89
2022/09/09 05:35:14;;;;;;;5.30;2.58;;;;;;;;;;2007585;29;20547;-90
2022/09/09 05:36:18;;;;;;;4.68;2.85;;;;;;;;;;2007501;29;20033;-89
2022/09/09 05:37:18;;;;;;;5.38;2.58;;;;;;;;;;2000364;29;20042;-90
2022/09/09 05:38:25;;;;;;;3.85;2.68;;;;;;;;;;853147;29;10021787;-90
2022/09/09 05:39:25;;;;;;;4.03;2.40;;;;;;;;;;2008475;29;20314;-89
2022/09/09 05:40:25;;;;;;;3.90;2.42;;;;;;;;;;2015902;29;20085;-89
2022/09/09 05:41:26;;;;;;;7.22;2.55;;;;;;;;;;2015932;29;20162;-89
2022/09/09 05:42:30;;;;;;;6.43;2.97;;;;;;;;;;2007689;29;20049;-89
2022/09/09 05:43:32;;;;;;;3.10;2.75;;;;;;;;;;2000471;29;20026;-89
2022/09/09 05:44:32;;;;;;;4.03;2.35;;;;;;;;;;2007716;29;20021;-89
2022/09/09 05:45:33;;;;;;;3.10;2.40;;;;;;;;;;2015905;29;20589;-89
2022/09/09 05:46:33;;;;;;;5.78;3.00;;;;;;;;;;2015956;29;20032;-89
2022/09/09 05:47:35;;;;;;;3.63;2.85;;;;;;;;;;2007552;29;20021;-89
2022/09/09 05:48:40;;;;;;;4.28;2.63;;;;;;;;;;2000271;29;20064;-89
2022/09/09 05:49:41;;;;;;;3.28;2.42;;;;;;;;;;2000582;29;20030;-89
2022/09/09 05:50:42;;;;;;;5.00;2.97;;;;;;;;;;2007745;29;20029;-89
2022/09/09 05:51:44;;;;;;;6.28;2.45;;;;;;;;;;2015193;29;20100;-89
2022/09/09 05:52:44;;;;;;;6.28;2.97;;;;;;;;;;2007820;29;20036;-89
2022/09/09 05:53:45;;;;;;;9.32;3.65;;;;;;;;;;2000078;29;20521;-88
2022/09/09 05:54:46;;;;;;;4.90;2.70;;;;;;;;;;2000040;29;20041;-88
2022/09/09 05:55:47;;;;;;;4.38;2.60;;;;;;;;;;2000000;29;20037;-88
2022/09/09 05:56:50;;;;;;;7.05;2.38;;;;;;;;;;2007729;29;20059;-87
2022/09/09 05:57:51;;;;;;;5.07;2.00;;;;;;;;;;2007923;29;20493;-90
2022/09/09 05:58:53;;;;;;;1.85;1.58;;;;;;;;;;2004078;29;20063;-87
2022/09/09 05:59:54;;;;;;;4.22;2.13;;;;;;;;;;2004724;29;20041;-87
2022/09/09 06:01:00;;;;;;;9.40;8.60;;;;;;;;;;2008557;29;20140;-87
2022/09/09 06:02:01;;;;;;;4.00;2.28;;;;;;;;;;2015978;29;20025;-88
2022/09/09 06:03:01;;;;;;;2.10;1.80;;;;;;;;;;2016089;29;20037;-88
2022/09/09 06:04:02;;;;;;;3.35;1.77;;;;;;;;;;2007660;29;20037;-88
2022/09/09 06:05:03;;;;;;;2.30;2.03;;;;;;;;;;2007403;29;20110;-88
2022/09/09 06:06:06;;;;;;;2.40;1.83;;;;;;;;;;2007837;29;20483;-89
2022/09/09 06:07:06;;;;;;;2.50;2.00;;;;;;;;;;2015913;29;20127;-89
2022/09/09 06:08:07;;;;;;;2.97;1.98;;;;;;;;;;2008084;29;20544;-89
2022/09/09 06:09:11;;;;;;;3.25;1.80;;;;;;;;;;2007790;29;20041;-88
2022/09/09 06:10:15;;;;;;;2.45;1.50;;;;;;;;;;2016530;29;20022;-89
2022/09/09 06:11:18;;;;;;;4.20;1.70;;;;;;;;;;2008270;29;20025;-89
2022/09/09 06:12:18;;;;;;;2.08;1.88;;;;;;;;;;2008966;29;20033;-89
2022/09/09 06:13:19;;;;;;;3.38;2.28;;;;;;;;;;2017474;29;20036;-89
2022/09/09 06:14:20;;;;;;;2.80;2.10;;;;;;;;;;1673715;29;9999900;-89
2022/09/09 06:15:20;;;;;;;1.80;1.70;;;;;;;;;;2009083;29;20056;-89
2022/09/09 06:16:24;;;;;;;3.08;1.92;;;;;;;;;;2008879;29;20033;-89
2022/09/09 06:17:24;;;;;;;3.88;2.28;;;;;;;;;;2009148;29;20032;-89
2022/09/09 06:18:25;;;;;;;2.25;1.92;;;;;;;;;;2008828;29;20026;-89
2022/09/09 06:19:26;;;;;;;3.70;2.05;;;;;;;;;;2008770;29;20072;-89
2022/09/09 06:20:30;;;;;;;2.53;1.80;;;;;;;;;;2001054;29;20103;-89
2022/09/09 06:21:35;;;;;;;4.93;3.10;;;;;;;;;;2009174;29;20421;-90
2022/09/09 06:22:36;;;;;;;2.53;2.00;;;;;;;;;;2008874;29;20029;-89
2022/09/09 06:23:40;;;;;;;4.10;2.45;;;;;;;;;;2008744;29;20112;-89
2022/09/09 06:24:40;;;;;;;2.38;1.70;;;;;;;;;;2008815;29;20095;-90
2022/09/09 06:25:41;;;;;;;2.45;1.83;;;;;;;;;;2001121;29;20022;-89
2022/09/09 06:26:41;;;;;;;1.98;1.60;;;;;;;;;;2008562;29;20061;-89
2022/09/09 06:27:42;;;;;;;2.40;1.90;;;;;;;;;;2008782;29;20055;-89